Time;durP1;ratioP1;P1;durP2;ratioP2;P2;SDS_P1;SDS_P2;PMS_P1;PMS_P2;Temp;Humidity;BMP_temperature;BMP_pressure;BME280_temperature;BME280_humidity;BME280_pressure;Samples;Min_cycle;Max_cycle;Signal;HPM_P1;HPM_P2
2022/03/20 00:00:14;;;;;;;25.67;13.77;;;6.30;62.70;;;;;;5064603;28;20493;-50
2022/03/20 00:02:42;;;;;;;26.00;15.10;;;6.30;62.70;;;;;;5064646;28;20438;-52
2022/03/20 00:05:09;;;;;;;22.77;13.40;;;6.30;62.00;;;;;;5064645;28;20487;-50
2022/03/20 00:07:38;;;;;;;27.70;13.63;;;6.30;62.10;;;;;;5064339;28;20501;-47
2022/03/20 00:10:06;;;;;;;25.33;11.80;;;6.20;62.20;;;;;;5064058;28;20440;-52
2022/03/20 00:12:34;;;;;;;21.37;12.63;;;6.20;62.90;;;;;;5064252;28;20463;-49
2022/03/20 00:15:01;;;;;;;32.13;14.47;;;6.10;62.70;;;;;;5064607;28;20478;-47
2022/03/20 00:17:28;;;;;;;27.10;15.07;;;6.10;62.80;;;;;;5064364;28;20509;-49
2022/03/20 00:19:54;;;;;;;19.00;13.23;;;6.00;63.40;;;;;;5064864;28;20427;-50
2022/03/20 00:22:21;;;;;;;26.33;12.37;;;6.00;63.50;;;;;;5064237;28;20501;-49
2022/03/20 00:24:48;;;;;;;24.00;13.50;;;6.00;63.90;;;;;;5065328;28;20482;-50
2022/03/20 00:27:15;;;;;;;25.40;13.57;;;6.00;63.10;;;;;;5065501;28;20443;-51
2022/03/20 00:29:44;;;;;;;26.23;13.90;;;6.00;63.10;;;;;;5065225;28;20469;-52
2022/03/20 00:32:13;;;;;;;31.47;14.07;;;6.00;63.10;;;;;;5064828;28;20459;-51
2022/03/20 00:34:42;;;;;;;24.03;12.07;;;5.90;63.40;;;;;;5063499;28;20534;-49
2022/03/20 00:37:10;;;;;;;30.97;14.70;;;5.80;63.50;;;;;;5071892;28;20482;-47
2022/03/20 00:39:37;;;;;;;23.90;14.00;;;5.80;63.60;;;;;;5073726;28;20448;-48
2022/03/20 00:42:05;;;;;;;22.63;12.90;;;5.80;63.80;;;;;;5074501;28;20438;-45
2022/03/20 00:44:32;;;;;;;29.27;13.00;;;5.70;63.50;;;;;;5074453;28;20483;-48
2022/03/20 00:47:07;;;;;;;21.43;13.53;;;5.70;63.20;;;;;;5074641;28;20470;-47
2022/03/20 00:49:34;;;;;;;27.83;13.47;;;5.60;63.60;;;;;;5075208;28;20447;-49
2022/03/20 00:52:00;;;;;;;19.53;10.53;;;5.70;63.30;;;;;;5074744;28;20462;-49
2022/03/20 00:54:27;;;;;;;23.03;14.80;;;5.70;63.40;;;;;;5074903;28;20440;-45
2022/03/20 00:56:54;;;;;;;22.17;11.23;;;5.70;63.20;;;;;;5074851;28;20473;-49
2022/03/20 00:59:20;;;;;;;30.07;13.47;;;5.70;62.60;;;;;;5074188;28;20463;-46
2022/03/20 01:01:53;;;;;;;27.37;13.17;;;5.70;62.50;;;;;;5074646;28;20473;-48
2022/03/20 01:04:21;;;;;;;21.47;11.20;;;5.70;62.50;;;;;;5074044;28;20441;-46
2022/03/20 01:06:48;;;;;;;22.73;13.83;;;5.60;62.40;;;;;;5073938;28;20439;-51
2022/03/20 01:09:19;;;;;;;23.53;11.63;;;5.60;62.10;;;;;;5073930;28;20480;-45
2022/03/20 01:11:45;;;;;;;22.33;12.70;;;5.60;62.70;;;;;;5073675;28;20427;-50
2022/03/20 01:14:13;;;;;;;24.83;12.93;;;5.60;62.30;;;;;;5068824;28;20447;-52
2022/03/20 01:16:39;;;;;;;31.43;13.50;;;5.60;62.10;;;;;;5059946;28;20431;-51
2022/03/20 01:19:06;;;;;;;23.17;13.07;;;5.60;62.30;;;;;;5058877;28;20443;-48
2022/03/20 01:21:34;;;;;;;26.77;14.87;;;5.70;62.10;;;;;;5060072;28;20471;-49
2022/03/20 01:24:02;;;;;;;25.00;12.80;;;5.60;61.50;;;;;;5059171;28;20455;-47
2022/03/20 01:26:29;;;;;;;25.67;14.27;;;5.60;61.90;;;;;;5059294;28;20487;-49
2022/03/20 01:28:56;;;;;;;26.43;13.37;;;5.50;62.00;;;;;;5064961;28;20490;-51
2022/03/20 01:31:22;;;;;;;22.10;12.30;;;5.50;62.30;;;;;;5059371;28;20450;-51
2022/03/20 01:33:49;;;;;;;25.50;13.00;;;5.60;62.20;;;;;;5058479;28;20469;-52
2022/03/20 01:36:16;;;;;;;19.30;12.37;;;5.60;62.20;;;;;;5058691;28;20435;-55
2022/03/20 01:38:44;;;;;;;17.53;12.47;;;5.60;61.90;;;;;;5058911;28;20463;-48
2022/03/20 01:41:11;;;;;;;24.23;12.00;;;5.50;62.30;;;;;;5059024;28;20503;-49
2022/03/20 01:43:48;;;;;;;20.53;9.93;;;5.50;62.40;;;;;;5058606;28;20482;-50
2022/03/20 01:46:15;;;;;;;24.63;12.27;;;5.50;62.40;;;;;;5058987;28;20475;-47
2022/03/20 01:48:41;;;;;;;19.60;13.13;;;5.50;62.40;;;;;;5058314;28;20455;-50
2022/03/20 01:51:10;;;;;;;28.37;13.20;;;5.40;62.40;;;;;;5059279;28;20439;-47
2022/03/20 01:53:37;;;;;;;23.80;11.43;;;5.40;62.30;;;;;;5059122;28;20497;-49
2022/03/20 01:56:06;;;;;;;22.83;12.37;;;5.30;62.40;;;;;;5059006;28;20471;-50
2022/03/20 01:58:34;;;;;;;27.67;14.50;;;5.30;62.40;;;;;;5058886;28;20515;-49
2022/03/20 02:01:02;;;;;;;19.97;11.70;;;5.30;62.50;;;;;;5059537;28;20471;-49
2022/03/20 02:03:29;;;;;;;21.07;11.40;;;5.30;62.50;;;;;;5058917;28;20515;-50
2022/03/20 02:05:56;;;;;;;23.80;10.97;;;5.30;62.50;;;;;;5058652;28;20483;-45
2022/03/20 02:08:27;;;;;;;17.47;10.90;;;5.30;62.80;;;;;;5058725;28;20773;-50
2022/03/20 02:10:54;;;;;;;28.93;12.40;;;5.30;63.10;;;;;;5059364;28;20738;-52
2022/03/20 02:13:23;;;;;;;23.40;11.30;;;5.20;63.10;;;;;;5058382;28;20994;-50
2022/03/20 02:15:50;;;;;;;24.77;13.20;;;5.20;63.30;;;;;;5058509;28;20440;-48
2022/03/20 02:18:18;;;;;;;20.10;10.87;;;5.20;63.20;;;;;;5059457;28;20479;-51
2022/03/20 02:20:47;;;;;;;25.13;12.23;;;5.10;63.30;;;;;;5058876;28;20455;-48
2022/03/20 02:23:15;;;;;;;20.47;12.80;;;5.10;63.30;;;;;;5058569;28;20471;-49
2022/03/20 02:25:47;;;;;;;29.77;12.60;;;5.10;64.10;;;;;;5058826;28;20478;-51
2022/03/20 02:28:14;;;;;;;21.03;11.73;;;5.10;63.70;;;;;;5059064;28;20435;-51
2022/03/20 02:30:41;;;;;;;28.00;12.40;;;5.10;63.60;;;;;;5058693;28;20455;-49
2022/03/20 02:33:08;;;;;;;20.93;12.10;;;5.10;64.20;;;;;;5058534;28;20447;-52
2022/03/20 02:35:36;;;;;;;18.97;10.70;;;5.10;63.90;;;;;;5058706;28;20471;-48
2022/03/20 02:38:04;;;;;;;22.97;11.87;;;5.00;63.70;;;;;;5058899;28;20458;-51
2022/03/20 02:40:32;;;;;;;31.47;13.37;;;5.00;64.40;;;;;;5058593;28;20472;-46
2022/03/20 02:43:02;;;;;;;22.90;14.10;;;4.90;64.70;;;;;;5058977;28;20443;-49
2022/03/20 02:45:30;;;;;;;22.37;12.40;;;4.90;64.20;;;;;;5058998;28;20517;-50
2022/03/20 02:47:58;;;;;;;20.30;11.50;;;4.90;64.50;;;;;;5063128;28;20538;-51
2022/03/20 02:50:28;;;;;;;22.83;13.00;;;4.80;64.30;;;;;;5062601;28;20455;-47
2022/03/20 02:52:56;;;;;;;27.87;14.37;;;4.80;64.70;;;;;;5062569;28;20476;-49
2022/03/20 02:55:24;;;;;;;18.53;11.20;;;4.80;64.60;;;;;;5063093;28;20439;-54
2022/03/20 02:57:55;;;;;;;23.20;13.57;;;4.70;64.60;;;;;;5062551;28;20986;-52
2022/03/20 03:00:25;;;;;;;20.50;12.60;;;4.70;64.80;;;;;;5062788;28;20902;-49
2022/03/20 03:02:55;;;;;;;25.57;11.93;;;4.70;64.80;;;;;;5062809;28;20768;-52
2022/03/20 03:05:24;;;;;;;17.03;12.40;;;4.70;65.20;;;;;;5062769;28;20494;-45
2022/03/20 03:10:59;;;;;;;23.23;12.80;;;4.70;65.00;;;;;;5042437;28;20442;-45
2022/03/20 03:13:30;;;;;;;23.70;12.63;;;4.60;65.00;;;;;;5062878;28;20428;-50
2022/03/20 03:15:59;;;;;;;21.57;12.77;;;4.70;65.20;;;;;;5063346;28;20497;-50
2022/03/20 03:18:26;;;;;;;23.17;12.30;;;4.60;65.00;;;;;;5063214;28;20474;-51
2022/03/20 03:20:54;;;;;;;29.43;14.23;;;4.60;65.90;;;;;;5063178;28;20446;-49
2022/03/20 03:23:21;;;;;;;22.93;12.43;;;4.60;65.00;;;;;;5062387;28;20439;-57
2022/03/20 03:25:50;;;;;;;20.73;10.87;;;4.60;65.20;;;;;;5062655;28;20578;-48
2022/03/20 03:28:17;;;;;;;20.20;11.50;;;4.60;65.60;;;;;;5062894;28;20459;-49
2022/03/20 03:30:47;;;;;;;19.20;12.33;;;4.60;65.30;;;;;;5062710;28;20443;-46
2022/03/20 03:33:17;;;;;;;18.40;11.13;;;4.60;65.10;;;;;;5062528;28;20470;-51
2022/03/20 03:35:46;;;;;;;28.67;12.60;;;4.50;64.90;;;;;;5062400;28;20451;-47
2022/03/20 03:38:14;;;;;;;22.37;12.00;;;4.50;65.20;;;;;;5062659;28;20454;-52
2022/03/20 03:40:43;;;;;;;19.80;11.53;;;4.40;65.50;;;;;;5062826;28;20474;-48
2022/03/20 03:43:10;;;;;;;20.77;12.93;;;4.40;65.60;;;;;;5062143;28;20439;-54
2022/03/20 03:45:40;;;;;;;18.50;10.87;;;4.40;65.40;;;;;;5061420;28;20552;-51
2022/03/20 03:48:08;;;;;;;21.40;13.00;;;4.40;65.70;;;;;;5061954;28;20439;-47
2022/03/20 03:50:36;;;;;;;20.93;10.90;;;4.40;65.30;;;;;;5062234;28;20483;-51
2022/03/20 03:53:03;;;;;;;19.40;11.80;;;4.40;65.60;;;;;;5062127;28;20524;-44
2022/03/20 03:55:30;;;;;;;23.13;12.70;;;4.30;65.80;;;;;;5061729;28;20444;-45
2022/03/20 03:57:59;;;;;;;22.30;11.70;;;4.30;66.80;;;;;;5061395;28;20568;-49
2022/03/20 04:00:27;;;;;;;19.07;12.30;;;4.40;66.00;;;;;;5061627;28;20452;-49
2022/03/20 04:02:54;;;;;;;18.97;10.70;;;4.40;65.90;;;;;;5061955;28;20534;-52
2022/03/20 04:05:22;;;;;;;24.20;11.17;;;4.30;66.50;;;;;;5061210;28;20458;-50
2022/03/20 04:07:49;;;;;;;20.23;10.87;;;4.30;66.10;;;;;;5061508;28;20972;-49
2022/03/20 04:10:17;;;;;;;25.80;13.07;;;4.30;66.10;;;;;;5061807;28;20431;-49
2022/03/20 04:12:46;;;;;;;22.40;11.87;;;4.20;66.10;;;;;;5061972;28;20888;-53
2022/03/20 04:15:14;;;;;;;27.93;13.50;;;4.20;66.50;;;;;;5061857;28;20509;-48
2022/03/20 04:17:42;;;;;;;23.50;13.43;;;4.20;67.80;;;;;;5061220;28;20936;-51
2022/03/20 04:20:12;;;;;;;21.47;12.27;;;4.20;67.60;;;;;;5062090;28;20659;-54
2022/03/20 04:23:42;;;;;;;23.87;13.13;;;4.20;67.10;;;;;;5061251;28;20485;-47
2022/03/20 04:25:32;;;;;;;26.40;13.83;;;4.10;67.20;;;;;;5061387;28;20570;-48
2022/03/20 04:27:58;;;;;;;22.07;12.37;;;4.10;67.60;;;;;;5061904;28;20447;-48
2022/03/20 04:30:26;;;;;;;24.57;12.17;;;4.00;68.40;;;;;;5061514;28;20481;-47
2022/03/20 04:32:55;;;;;;;23.43;13.03;;;4.00;67.90;;;;;;5061511;28;20463;-50
2022/03/20 04:35:23;;;;;;;20.27;12.43;;;4.00;68.20;;;;;;5062100;28;20508;-47
2022/03/20 04:37:51;;;;;;;31.47;13.27;;;4.00;68.10;;;;;;5062103;28;20471;-48
2022/03/20 04:40:18;;;;;;;26.23;12.93;;;4.00;68.30;;;;;;5061799;28;20477;-48
2022/03/20 04:42:45;;;;;;;18.77;10.50;;;4.00;68.60;;;;;;5062035;28;20458;-46
2022/03/20 04:45:12;;;;;;;23.67;13.57;;;3.90;69.80;;;;;;5061546;28;20501;-47
2022/03/20 04:58:40;;;;;;;29.70;13.50;;;3.70;69.80;;;;;;5044234;28;20497;-47
2022/03/20 05:01:09;;;;;;;21.90;13.40;;;3.70;70.30;;;;;;5061918;28;20467;-47
2022/03/20 05:03:36;;;;;;;27.23;12.20;;;3.60;70.70;;;;;;5062256;28;20498;-49
2022/03/20 05:06:05;;;;;;;18.80;10.80;;;3.60;70.60;;;;;;5061762;28;20483;-48
2022/03/20 05:08:35;;;;;;;20.60;11.63;;;3.60;71.00;;;;;;5060830;28;20471;-52
2022/03/20 05:13:49;;;;;;;20.60;12.33;;;3.60;71.20;;;;;;5062121;28;20454;-47
2022/03/20 05:16:16;;;;;;;22.77;13.30;;;3.30;70.90;;;;;;5062057;28;20462;-48
2022/03/20 05:18:44;;;;;;;19.93;12.80;;;3.50;71.20;;;;;;5062120;28;20440;-53
2022/03/20 05:21:10;;;;;;;30.33;13.87;;;3.50;71.40;;;;;;5061421;28;20427;-53
2022/03/20 05:23:39;;;;;;;24.10;14.67;;;3.50;71.30;;;;;;5061368;28;20443;-52
2022/03/20 05:26:06;;;;;;;31.80;12.80;;;3.50;72.10;;;;;;5061468;28;20540;-53
2022/03/20 05:28:32;;;;;;;23.97;11.17;;;3.60;71.40;;;;;;5061874;28;20451;-47
2022/03/20 05:30:59;;;;;;;29.40;12.67;;;3.50;71.40;;;;;;5062306;28;20508;-45
2022/03/20 05:33:29;;;;;;;21.70;12.93;;;3.50;71.40;;;;;;5062003;28;20471;-52
2022/03/20 05:35:55;;;;;;;24.33;14.10;;;3.50;71.90;;;;;;5062191;28;20447;-48
2022/03/20 05:38:23;;;;;;;19.00;11.57;;;3.50;71.70;;;;;;5061597;28;20439;-47
2022/03/20 05:41:43;;;;;;;27.03;12.63;;;3.50;71.70;;;;;;5062406;28;20491;-52
2022/03/20 05:43:39;;;;;;;27.00;15.63;;;3.50;72.00;;;;;;5062301;28;20450;-49
2022/03/20 05:46:06;;;;;;;21.03;12.90;;;3.40;71.30;;;;;;5061628;28;20475;-51
2022/03/20 05:48:32;;;;;;;20.50;12.20;;;3.40;71.40;;;;;;5060892;28;20505;-47
2022/03/20 05:50:59;;;;;;;24.53;12.00;;;3.40;71.70;;;;;;5061141;28;20526;-50
2022/03/20 05:53:26;;;;;;;21.53;13.23;;;3.40;71.50;;;;;;5061499;28;20443;-48
2022/03/20 05:58:38;;;;;;;29.30;13.80;;;3.50;71.60;;;;;;5045662;28;20970;-61
2022/03/20 06:01:05;;;;;;;25.17;12.20;;;3.50;71.20;;;;;;5055579;28;20493;-64
2022/03/20 06:03:32;;;;;;;23.77;12.47;;;3.40;71.10;;;;;;5062391;28;20493;-63
2022/03/20 06:05:58;;;;;;;25.23;13.67;;;3.50;71.30;;;;;;5061615;28;20487;-63
2022/03/20 06:08:25;;;;;;;20.03;12.00;;;3.50;70.90;;;;;;5061486;28;20447;-65
2022/03/20 06:10:51;;;;;;;22.70;11.60;;;3.50;70.70;;;;;;5059972;28;20435;-59
2022/03/20 06:13:20;;;;;;;19.93;11.27;;;3.50;71.70;;;;;;5060786;28;20451;-64
2022/03/20 06:15:47;;;;;;;32.83;12.77;;;3.60;70.60;;;;;;5060471;28;20435;-64
2022/03/20 06:18:14;;;;;;;23.97;12.97;;;3.60;70.60;;;;;;5060317;28;20471;-62
2022/03/20 06:20:40;;;;;;;23.57;13.00;;;3.60;70.00;;;;;;5059372;28;20517;-60
2022/03/20 06:23:09;;;;;;;28.37;13.67;;;3.60;70.00;;;;;;5057140;28;20528;-64
2022/03/20 06:25:35;;;;;;;20.70;12.40;;;3.60;70.00;;;;;;5059690;28;20424;-58
2022/03/20 06:28:02;;;;;;;25.00;13.83;;;3.60;70.00;;;;;;5056344;28;20483;-60
2022/03/20 06:30:34;;;;;;;23.13;13.50;;;3.60;69.70;;;;;;5055472;28;20467;-62
2022/03/20 06:33:02;;;;;;;25.10;12.07;;;3.60;69.50;;;;;;5056947;28;20443;-64
2022/03/20 06:35:28;;;;;;;23.20;12.23;;;3.60;69.30;;;;;;5059486;28;20467;-64
2022/03/20 06:37:55;;;;;;;21.83;11.00;;;3.70;69.30;;;;;;5060309;28;20439;-63
2022/03/20 06:40:23;;;;;;;26.30;12.20;;;3.70;69.00;;;;;;5061753;28;20443;-60
2022/03/20 06:42:49;;;;;;;18.97;9.70;;;3.70;69.30;;;;;;5074794;28;20744;-60
2022/03/20 06:45:19;;;;;;;20.60;11.17;;;3.80;68.10;;;;;;5075024;28;20435;-58
2022/03/20 06:47:48;;;;;;;17.57;12.70;;;3.80;68.00;;;;;;5074774;28;20465;-62
2022/03/20 06:50:16;;;;;;;24.30;13.03;;;3.80;67.90;;;;;;5074906;28;20455;-61
2022/03/20 06:52:43;;;;;;;26.60;13.00;;;3.80;67.40;;;;;;5074418;28;20485;-61
2022/03/20 06:55:12;;;;;;;22.30;12.27;;;3.90;67.00;;;;;;5074635;28;20447;-62
2022/03/20 06:57:41;;;;;;;22.07;12.33;;;4.00;66.60;;;;;;5074537;28;20496;-64
2022/03/20 07:00:09;;;;;;;21.47;12.13;;;4.10;66.30;;;;;;5075134;28;20892;-62
2022/03/20 07:02:36;;;;;;;21.23;12.43;;;4.20;65.90;;;;;;5075216;28;20451;-57
2022/03/20 07:05:07;;;;;;;25.40;13.37;;;4.20;65.30;;;;;;5075517;28;20449;-57
2022/03/20 07:07:36;;;;;;;15.33;10.30;;;4.30;65.30;;;;;;5074600;28;20487;-54
2022/03/20 07:10:03;;;;;;;25.60;12.40;;;4.40;64.70;;;;;;5075127;28;20420;-60
2022/03/20 07:12:31;;;;;;;25.70;13.60;;;4.50;64.40;;;;;;5074949;28;20459;-56
2022/03/20 07:14:58;;;;;;;29.13;13.17;;;4.60;64.10;;;;;;5074896;28;20452;-61
2022/03/20 07:17:25;;;;;;;28.23;15.10;;;4.70;64.00;;;;;;5072213;28;20471;-60
2022/03/20 07:19:52;;;;;;;29.23;14.10;;;4.80;63.00;;;;;;5071129;28;20423;-53
2022/03/20 07:22:26;;;;;;;26.43;13.97;;;4.80;62.40;;;;;;5077036;28;20451;-64
2022/03/20 07:24:54;;;;;;;26.73;13.10;;;4.90;62.40;;;;;;5077305;28;20463;-62
2022/03/20 07:30:33;;;;;;;22.13;12.70;;;5.10;61.40;;;;;;5076616;28;20451;-60
2022/03/20 07:32:59;;;;;;;23.83;11.70;;;5.20;61.20;;;;;;5079642;28;20522;-66
2022/03/20 07:35:27;;;;;;;19.17;12.57;;;5.30;61.20;;;;;;5080514;28;20440;-53
2022/03/20 07:37:57;;;;;;;18.50;11.80;;;5.40;60.80;;;;;;5079720;28;20447;-60
2022/03/20 07:40:24;;;;;;;21.90;12.27;;;5.40;60.70;;;;;;5079936;28;20435;-65
2022/03/20 07:42:50;;;;;;;23.07;12.63;;;5.50;60.10;;;;;;5079832;28;20451;-61
2022/03/20 07:45:18;;;;;;;27.97;16.07;;;5.60;59.80;;;;;;5079660;28;20446;-63
2022/03/20 07:47:46;;;;;;;21.57;12.17;;;5.60;59.60;;;;;;5079106;28;20483;-64
2022/03/20 07:50:13;;;;;;;23.50;15.63;;;5.70;59.60;;;;;;5078789;28;20437;-65
2022/03/20 07:52:40;;;;;;;27.07;13.40;;;5.80;59.50;;;;;;5079597;28;20443;-57
2022/03/20 07:55:09;;;;;;;32.57;14.70;;;5.80;59.00;;;;;;5079367;28;20477;-65
2022/03/20 07:57:41;;;;;;;24.03;12.83;;;5.90;59.60;;;;;;5079099;28;20428;-60
2022/03/20 08:00:09;;;;;;;22.97;13.80;;;6.00;59.10;;;;;;5079487;28;20467;-61
2022/03/20 08:02:37;;;;;;;27.27;15.40;;;6.10;58.50;;;;;;5077455;28;20424;-60
2022/03/20 08:05:04;;;;;;;21.73;12.57;;;6.20;58.30;;;;;;5079430;28;20497;-62
2022/03/20 08:07:35;;;;;;;31.43;13.60;;;6.20;58.00;;;;;;5078317;28;20459;-67
2022/03/20 08:10:06;;;;;;;20.40;12.60;;;6.40;58.60;;;;;;5063287;28;20455;-55
2022/03/20 08:12:36;;;;;;;19.57;12.37;;;6.40;57.90;;;;;;5079314;28;20448;-64
2022/03/20 08:15:06;;;;;;;31.40;14.30;;;6.50;57.60;;;;;;5076036;28;20454;-61
2022/03/20 08:17:44;;;;;;;22.47;14.17;;;6.60;57.50;;;;;;5078260;28;20489;-66
2022/03/20 08:20:12;;;;;;;25.87;13.43;;;6.70;57.20;;;;;;5058245;28;20447;-63
2022/03/20 08:22:38;;;;;;;32.30;13.80;;;6.70;57.30;;;;;;5058272;28;20464;-61
2022/03/20 08:25:11;;;;;;;31.07;15.77;;;6.90;56.90;;;;;;5058032;28;20443;-69
2022/03/20 08:27:45;;;;;;;30.07;15.17;;;7.00;56.80;;;;;;5057330;28;20474;-67
2022/03/20 08:30:15;;;;;;;24.20;13.37;;;7.10;56.60;;;;;;5070819;28;20435;-71
2022/03/20 08:32:43;;;;;;;23.70;15.33;;;7.30;56.40;;;;;;5076692;28;20478;-67
2022/03/20 08:35:13;;;;;;;21.40;13.13;;;7.80;56.20;;;;;;5077653;28;20443;-69
2022/03/20 08:37:40;;;;;;;27.07;14.67;;;8.90;54.40;;;;;;5076707;28;20455;-68
2022/03/20 08:40:11;;;;;;;27.73;14.23;;;10.50;52.20;;;;;;5076543;28;20819;-60
2022/03/20 08:42:39;;;;;;;32.30;15.27;;;12.30;49.20;;;;;;5076328;28;20471;-56
2022/03/20 08:45:08;;;;;;;24.67;15.47;;;14.00;46.50;;;;;;5075611;28;20443;-62
2022/03/20 08:47:36;;;;;;;27.40;16.00;;;15.60;43.90;;;;;;5075308;28;20513;-59
2022/03/20 08:50:03;;;;;;;24.80;14.53;;;16.70;40.90;;;;;;5075953;28;20412;-57
2022/03/20 08:52:33;;;;;;;29.83;16.30;;;17.30;39.40;;;;;;5076654;28;20459;-59
2022/03/20 08:55:00;;;;;;;26.87;18.77;;;18.10;38.30;;;;;;5075368;28;20424;-58
2022/03/20 08:57:29;;;;;;;24.47;16.40;;;19.00;37.00;;;;;;5076043;28;20462;-58
2022/03/20 08:59:55;;;;;;;26.03;16.50;;;19.60;35.80;;;;;;5076784;28;20432;-59
2022/03/20 09:02:23;;;;;;;25.60;17.43;;;20.40;34.50;;;;;;5076711;28;20451;-60
2022/03/20 09:04:50;;;;;;;24.17;16.57;;;20.50;33.40;;;;;;5076276;28;20457;-60
2022/03/20 09:07:17;;;;;;;28.50;16.40;;;20.70;32.80;;;;;;5075941;28;20486;-60
2022/03/20 09:09:43;;;;;;;27.10;17.67;;;21.20;32.50;;;;;;5076476;28;21019;-60
2022/03/20 09:12:12;;;;;;;24.07;17.07;;;21.00;31.20;;;;;;5076285;28;20856;-59
2022/03/20 09:14:39;;;;;;;26.43;15.37;;;20.90;31.20;;;;;;5076145;28;20463;-60
2022/03/20 09:19:55;;;;;;;25.43;16.20;;;20.80;30.90;;;;;;5076645;28;20469;-60
2022/03/20 09:22:21;;;;;;;20.40;15.60;;;20.60;30.80;;;;;;5076256;28;20457;-62
2022/03/20 09:24:48;;;;;;;24.97;16.50;;;20.50;30.60;;;;;;5076251;28;20468;-59
2022/03/20 09:27:15;;;;;;;24.20;16.30;;;20.40;31.00;;;;;;5075666;28;20472;-59
2022/03/20 09:29:41;;;;;;;19.73;14.90;;;20.70;33.40;;;;;;5076293;28;20494;-59
2022/03/20 09:32:09;;;;;;;27.33;17.40;;;20.90;30.40;;;;;;5076375;28;20439;-63
2022/03/20 09:34:36;;;;;;;23.10;16.77;;;20.80;30.10;;;;;;5075907;28;20452;-60
2022/03/20 09:37:04;;;;;;;28.40;17.73;;;19.90;30.40;;;;;;5076777;28;20442;-62
2022/03/20 09:39:32;;;;;;;25.00;15.47;;;18.80;31.10;;;;;;5075875;28;20457;-61
2022/03/20 09:42:00;;;;;;;22.27;14.73;;;17.70;32.00;;;;;;5076459;28;20427;-57
2022/03/20 09:44:34;;;;;;;28.33;17.87;;;16.90;32.60;;;;;;5075773;28;20577;-61
2022/03/20 09:47:05;;;;;;;25.70;16.77;;;16.00;33.80;;;;;;5076023;28;20427;-59
2022/03/20 09:49:34;;;;;;;21.87;15.13;;;15.70;34.90;;;;;;5075979;28;20515;-60
2022/03/20 09:52:01;;;;;;;26.40;16.50;;;16.20;34.70;;;;;;5075724;28;20440;-59
2022/03/20 09:54:29;;;;;;;20.03;14.47;;;17.00;33.90;;;;;;5075422;28;20427;-62
2022/03/20 09:56:55;;;;;;;21.97;16.13;;;17.50;33.50;;;;;;5076143;28;20435;-61
2022/03/20 09:59:22;;;;;;;25.70;15.90;;;18.10;33.00;;;;;;5075412;28;20447;-59
2022/03/20 10:01:49;;;;;;;23.47;16.30;;;19.00;32.40;;;;;;5076026;28;20443;-59
2022/03/20 10:04:18;;;;;;;19.60;15.60;;;19.60;32.10;;;;;;5075994;28;20454;-63
2022/03/20 10:06:45;;;;;;;26.90;15.30;;;20.10;31.40;;;;;;5075712;28;20499;-60
2022/03/20 10:09:13;;;;;;;21.50;15.50;;;21.10;30.60;;;;;;5075398;28;20476;-62
2022/03/20 10:11:48;;;;;;;23.97;16.30;;;21.10;30.20;;;;;;5075594;28;20467;-54
2022/03/20 10:14:17;;;;;;;22.60;15.40;;;21.40;30.00;;;;;;5076399;28;20427;-59
2022/03/20 10:16:48;;;;;;;20.70;16.00;;;21.40;29.60;;;;;;5075375;28;20467;-60
2022/03/20 10:19:28;;;;;;;23.10;16.93;;;21.30;29.50;;;;;;5074103;28;20447;-58
2022/03/20 10:21:56;;;;;;;23.20;15.23;;;21.50;29.60;;;;;;5075408;28;20456;-61
2022/03/20 10:24:25;;;;;;;22.30;15.93;;;21.50;29.30;;;;;;5075555;28;20454;-60
2022/03/20 10:27:03;;;;;;;30.80;16.97;;;21.30;29.40;;;;;;5075684;28;20515;-61
2022/03/20 10:29:35;;;;;;;20.43;15.07;;;21.10;29.30;;;;;;5075154;28;20454;-61
2022/03/20 10:32:03;;;;;;;24.90;15.93;;;20.80;29.40;;;;;;5074757;28;20458;-62
2022/03/20 10:34:46;;;;;;;30.90;14.17;;;20.40;29.70;;;;;;5075138;28;20427;-65
2022/03/20 10:37:12;;;;;;;22.80;14.57;;;20.50;29.70;;;;;;5064314;28;20467;-58
2022/03/20 10:39:42;;;;;;;21.43;15.60;;;20.50;29.60;;;;;;5054424;28;20559;-59
2022/03/20 10:42:11;;;;;;;21.63;16.30;;;20.60;29.70;;;;;;5049953;28;20468;-58
2022/03/20 10:44:38;;;;;;;20.63;15.60;;;20.70;29.60;;;;;;5050517;28;20440;-60
2022/03/20 10:47:12;;;;;;;18.70;13.57;;;20.80;29.40;;;;;;5048921;28;20475;-59
2022/03/20 10:49:40;;;;;;;17.10;12.43;;;20.80;28.90;;;;;;5049008;28;20479;-57
2022/03/20 10:52:08;;;;;;;17.30;12.93;;;21.10;28.70;;;;;;5048294;28;20487;-62
2022/03/20 10:54:43;;;;;;;17.20;12.03;;;21.00;28.90;;;;;;5048541;28;20428;-55
2022/03/20 10:57:13;;;;;;;21.83;13.07;;;20.80;28.70;;;;;;5045636;28;20444;-59
2022/03/20 10:59:40;;;;;;;20.97;11.90;;;20.50;28.00;;;;;;5041080;28;20988;-58
2022/03/20 11:02:21;;;;;;;14.57;10.60;;;20.40;28.40;;;;;;5040847;28;20502;-59
2022/03/20 11:04:47;;;;;;;14.20;10.17;;;20.00;27.80;;;;;;5040971;28;20480;-58
2022/03/20 11:07:16;;;;;;;17.60;11.13;;;19.80;27.80;;;;;;5043104;28;21096;-59
2022/03/20 11:09:45;;;;;;;18.50;13.13;;;19.50;27.60;;;;;;5043830;28;20474;-59
2022/03/20 11:12:18;;;;;;;15.03;11.27;;;19.00;27.90;;;;;;5043947;28;20452;-58
2022/03/20 11:14:46;;;;;;;20.47;13.63;;;18.70;28.10;;;;;;5043740;28;20476;-59
2022/03/20 11:17:17;;;;;;;21.57;10.90;;;18.30;28.20;;;;;;5044284;28;20436;-58
2022/03/20 11:19:54;;;;;;;14.10;10.80;;;18.00;28.60;;;;;;5044887;28;20432;-60
2022/03/20 11:22:22;;;;;;;19.37;10.57;;;17.70;28.80;;;;;;5044820;28;20482;-60
2022/03/20 11:24:52;;;;;;;24.73;12.07;;;17.20;29.10;;;;;;5045975;28;20511;-58
2022/03/20 11:27:24;;;;;;;15.17;12.23;;;16.90;30.70;;;;;;5046306;28;20464;-59
2022/03/20 11:29:52;;;;;;;16.83;12.53;;;16.60;30.40;;;;;;5046884;28;20455;-60
2022/03/20 11:32:19;;;;;;;16.67;11.87;;;16.50;30.50;;;;;;5046759;28;20456;-60
2022/03/20 11:34:48;;;;;;;14.13;10.10;;;16.30;30.10;;;;;;5046916;28;20471;-59
2022/03/20 11:37:16;;;;;;;17.67;12.30;;;16.10;30.40;;;;;;5047298;28;20511;-58
2022/03/20 11:40:11;;;;;;;21.03;11.47;;;15.90;31.40;;;;;;5047889;28;20536;-60
2022/03/20 11:42:39;;;;;;;18.50;12.57;;;15.50;32.10;;;;;;5048762;28;20463;-58
2022/03/20 11:45:16;;;;;;;19.50;12.33;;;15.40;32.40;;;;;;5048191;28;20460;-62
2022/03/20 11:47:45;;;;;;;16.80;11.80;;;15.20;31.50;;;;;;5048299;28;20479;-60
2022/03/20 11:50:15;;;;;;;16.77;13.03;;;15.10;31.60;;;;;;5048461;28;20453;-60
2022/03/20 11:52:48;;;;;;;17.47;13.43;;;14.90;32.10;;;;;;5048910;28;20479;-59
2022/03/20 11:55:26;;;;;;;15.87;11.10;;;14.90;33.50;;;;;;5048119;28;20429;-59
2022/03/20 11:57:54;;;;;;;20.77;12.73;;;14.90;33.90;;;;;;5049033;28;20526;-59
2022/03/20 12:00:25;;;;;;;23.57;13.93;;;14.90;33.20;;;;;;5048538;28;20448;-58
2022/03/20 12:03:12;;;;;;;18.00;11.97;;;15.00;33.40;;;;;;5047994;28;20464;-58
2022/03/20 12:05:59;;;;;;;26.40;13.43;;;15.10;33.90;;;;;;5047641;28;20452;-59
2022/03/20 12:08:41;;;;;;;17.40;12.57;;;15.00;33.70;;;;;;5047291;28;20480;-60
2022/03/20 12:11:20;;;;;;;17.77;12.90;;;15.00;33.80;;;;;;5048090;28;20432;-59
2022/03/20 12:13:55;;;;;;;26.90;12.07;;;15.00;33.80;;;;;;5047982;28;20432;-59
2022/03/20 12:16:55;;;;;;;22.30;12.07;;;15.10;33.80;;;;;;5046720;28;20506;-60
2022/03/20 12:19:23;;;;;;;22.97;13.10;;;15.00;33.20;;;;;;5044279;28;20448;-59
2022/03/20 12:21:54;;;;;;;14.57;11.37;;;15.00;33.90;;;;;;5048188;28;20531;-57
2022/03/20 12:24:55;;;;;;;14.97;9.30;;;15.00;32.50;;;;;;5047349;28;20460;-58
2022/03/20 12:27:45;;;;;;;14.93;9.60;;;14.90;32.00;;;;;;5047513;28;20478;-59
2022/03/20 12:30:36;;;;;;;15.87;10.57;;;14.90;31.70;;;;;;5047314;28;20433;-59
2022/03/20 12:33:04;;;;;;;21.47;11.30;;;14.90;32.10;;;;;;5046608;28;20476;-60
2022/03/20 12:35:47;;;;;;;21.17;12.00;;;15.00;33.10;;;;;;5046777;28;20440;-60
2022/03/20 12:38:35;;;;;;;21.67;11.40;;;14.90;33.60;;;;;;5046073;28;20448;-60
2022/03/20 12:41:11;;;;;;;17.53;11.00;;;15.00;34.10;;;;;;5047341;28;20440;-59
2022/03/20 12:43:38;;;;;;;22.43;11.20;;;15.00;32.90;;;;;;5047075;28;20431;-59
2022/03/20 12:46:08;;;;;;;16.10;10.13;;;14.90;32.30;;;;;;5047600;28;20444;-60
2022/03/20 12:48:36;;;;;;;20.40;11.40;;;14.90;32.40;;;;;;5046403;28;20599;-60
2022/03/20 12:51:09;;;;;;;17.37;10.60;;;15.00;33.10;;;;;;5047057;28;20500;-58
2022/03/20 12:53:43;;;;;;;15.00;10.10;;;15.10;32.80;;;;;;5046890;28;20519;-61
2022/03/20 12:56:19;;;;;;;18.30;11.10;;;15.20;32.80;;;;;;5046544;28;20468;-59
2022/03/20 12:58:46;;;;;;;34.87;11.70;;;15.30;32.80;;;;;;5046385;28;20525;-58
2022/03/20 13:01:14;;;;;;;18.73;11.70;;;15.30;33.20;;;;;;5047360;28;20523;-60
2022/03/20 13:03:42;;;;;;;16.30;10.20;;;15.20;32.30;;;;;;5046252;28;20440;-59
2022/03/20 13:06:08;;;;;;;18.67;10.17;;;15.20;32.80;;;;;;5043788;28;20494;-59
2022/03/20 13:08:37;;;;;;;15.87;9.70;;;15.20;31.20;;;;;;5035262;28;20492;-58